createdAt,value
2019-03-20T00:00:35.026Z,65.60
2019-03-20T00:03:03.541Z,65.50
2019-03-20T00:05:31.832Z,65.40
2019-03-20T00:08:00.108Z,65.40
2019-03-20T00:10:28.902Z,65.40
2019-03-20T00:12:57.297Z,65.40
2019-03-20T00:15:25.651Z,65.40
2019-03-20T00:17:53.920Z,65.30
2019-03-20T00:20:22.215Z,65.30
2019-03-20T00:22:50.565Z,65.30
2019-03-20T00:25:18.856Z,65.20
2019-03-20T00:27:47.202Z,65.10
2019-03-20T00:30:17.795Z,65.00
2019-03-20T00:32:46.424Z,64.90
2019-03-20T00:35:14.783Z,64.90
2019-03-20T00:37:43.054Z,64.90
2019-03-20T00:40:17.763Z,64.90
2019-03-20T00:42:46.086Z,64.80
2019-03-20T00:45:21.369Z,64.70
2019-03-20T00:47:49.646Z,64.70
2019-03-20T00:50:18.957Z,64.60
2019-03-20T00:52:47.343Z,64.70
2019-03-20T00:55:19.239Z,64.50
2019-03-20T00:57:47.945Z,64.50
2019-03-20T01:00:21.392Z,64.50
2019-03-20T01:02:49.767Z,64.50
2019-03-20T01:05:18.156Z,64.50
2019-03-20T01:07:46.532Z,64.50
2019-03-20T01:10:20.180Z,64.40
2019-03-20T01:12:48.532Z,64.40
2019-03-20T01:15:16.814Z,64.40
2019-03-20T01:17:45.485Z,64.30
2019-03-20T01:20:17.071Z,64.30
2019-03-20T01:22:45.354Z,64.30
2019-03-20T01:25:14.249Z,64.20
2019-03-20T01:27:42.524Z,64.20
2019-03-20T01:30:32.458Z,64.10
2019-03-20T01:33:05.846Z,64.00
2019-03-20T01:35:34.133Z,63.90
2019-03-20T01:38:02.463Z,63.90
2019-03-20T01:40:30.880Z,63.90
2019-03-20T01:42:59.146Z,63.90
2019-03-20T01:45:27.446Z,63.70
2019-03-20T01:47:55.902Z,63.70
2019-03-20T01:50:24.187Z,63.60
2019-03-20T01:52:52.450Z,63.60
2019-03-20T01:55:20.745Z,63.60
2019-03-20T01:57:49.031Z,63.50
2019-03-20T02:00:17.384Z,63.50
2019-03-20T02:02:45.657Z,63.50
2019-03-20T02:05:13.948Z,63.50
2019-03-20T02:07:42.291Z,63.50
2019-03-20T02:10:14.650Z,63.40
2019-03-20T02:12:43.200Z,63.40
2019-03-20T02:15:13.775Z,63.10
2019-03-20T02:17:42.136Z,63.20
2019-03-20T02:20:15.956Z,63.10
2019-03-20T02:22:44.246Z,62.90
2019-03-20T02:25:13.346Z,62.90
2019-03-20T02:27:41.640Z,62.90
2019-03-20T02:30:17.260Z,62.90
2019-03-20T02:32:45.635Z,63.60
2019-03-20T02:35:13.965Z,62.80
2019-03-20T02:37:42.341Z,62.70
2019-03-20T02:40:14.580Z,62.70
2019-03-20T02:42:42.871Z,62.70
2019-03-20T02:45:12.949Z,62.60
2019-03-20T02:47:41.304Z,62.50
2019-03-20T02:50:11.131Z,62.60
2019-03-20T02:52:39.484Z,62.70
2019-03-20T02:55:09.386Z,63.40
2019-03-20T02:57:37.828Z,62.50
2019-03-20T03:00:09.482Z,62.50
2019-03-20T03:02:37.894Z,62.50
2019-03-20T03:05:07.204Z,62.60
2019-03-20T03:07:35.518Z,62.50
2019-03-20T03:10:06.565Z,62.50
2019-03-20T03:12:34.850Z,62.50
2019-03-20T03:15:03.543Z,62.60
2019-03-20T03:17:32.366Z,62.50
2019-03-20T03:20:00.683Z,62.40
2019-03-20T03:22:28.986Z,62.50
2019-03-20T03:24:57.334Z,62.50
2019-03-20T03:27:25.632Z,62.50
2019-03-20T03:29:53.987Z,62.50
2019-03-20T03:32:22.273Z,62.50
2019-03-20T03:34:50.549Z,62.60
2019-03-20T03:37:18.911Z,62.50
2019-03-20T03:39:47.189Z,62.50
2019-03-20T03:42:15.502Z,62.40
2019-03-20T03:44:43.842Z,62.40
2019-03-20T03:47:12.205Z,62.40
2019-03-20T03:49:40.611Z,62.30
2019-03-20T03:52:09.088Z,62.30
2019-03-20T03:54:37.416Z,62.30
2019-03-20T03:57:05.710Z,62.30
2019-03-20T03:59:33.990Z,62.30
2019-03-20T04:02:02.287Z,62.30
2019-03-20T04:04:30.559Z,62.30
2019-03-20T04:06:58.870Z,62.20
2019-03-20T04:09:27.209Z,62.20
2019-03-20T04:11:55.482Z,62.10
2019-03-20T04:14:23.845Z,62.10
2019-03-20T04:16:52.111Z,62.10
2019-03-20T04:19:20.410Z,62.10
2019-03-20T04:21:48.683Z,62.10
2019-03-20T04:24:16.967Z,62.10
2019-03-20T04:26:45.240Z,62.00
2019-03-20T04:29:13.540Z,62.00
2019-03-20T04:31:41.907Z,61.90
2019-03-20T04:34:10.229Z,61.90
2019-03-20T04:36:47.157Z,61.80
2019-03-20T04:39:08.583Z,61.70
2019-03-20T04:41:36.850Z,61.70
2019-03-20T04:44:05.133Z,61.60
2019-03-20T04:46:33.417Z,61.50
2019-03-20T04:49:01.797Z,61.50
2019-03-20T04:51:30.065Z,61.40
2019-03-20T04:53:58.345Z,61.40
2019-03-20T04:56:26.702Z,61.30
2019-03-20T04:58:54.973Z,61.30
2019-03-20T05:01:23.268Z,61.30
2019-03-20T05:03:51.611Z,61.30
2019-03-20T05:06:19.906Z,61.10
2019-03-20T05:08:48.178Z,61.30
2019-03-20T05:11:16.463Z,61.20
2019-03-20T05:13:44.739Z,61.20
2019-03-20T05:16:13.032Z,61.30
2019-03-20T05:18:41.414Z,61.40
2019-03-20T05:21:10.868Z,61.40
2019-03-20T05:23:40.273Z,61.60
2019-03-20T05:26:08.624Z,61.90
2019-03-20T05:28:36.970Z,62.00
2019-03-20T05:31:05.266Z,61.90
2019-03-20T05:33:33.538Z,61.90
2019-03-20T05:36:01.840Z,61.90
2019-03-20T05:38:30.118Z,61.90
2019-03-20T05:40:58.408Z,62.20
2019-03-20T05:43:26.693Z,62.70
2019-03-20T05:45:55.056Z,62.80
2019-03-20T05:48:23.392Z,63.20
2019-03-20T05:50:51.678Z,63.40
2019-03-20T05:53:19.948Z,63.50
2019-03-20T05:55:48.272Z,63.80
2019-03-20T05:58:16.605Z,63.90
2019-03-20T06:00:45.015Z,64.00
2019-03-20T06:03:13.347Z,64.20
2019-03-20T06:05:41.635Z,64.30
2019-03-20T06:08:09.915Z,64.50
2019-03-20T06:10:38.273Z,64.60
2019-03-20T06:13:06.549Z,64.80
2019-03-20T06:15:34.845Z,65.00
2019-03-20T06:18:03.201Z,64.90
2019-03-20T06:20:33.738Z,64.90
2019-03-20T06:23:01.563Z,65.00
2019-03-20T06:25:29.858Z,65.10
2019-03-20T06:27:58.130Z,65.10
2019-03-20T06:30:26.431Z,64.80
2019-03-20T06:32:54.704Z,64.60
2019-03-20T06:35:23.184Z,64.50
2019-03-20T06:37:51.461Z,64.50
2019-03-20T06:40:19.741Z,64.50
2019-03-20T06:42:48.033Z,64.50
2019-03-20T06:45:20.930Z,64.60
2019-03-20T06:47:49.223Z,64.50
2019-03-20T06:50:19.691Z,64.50
2019-03-20T06:52:47.978Z,64.50
2019-03-20T06:55:16.265Z,64.90
2019-03-20T06:57:44.551Z,65.20
2019-03-20T07:00:49.621Z,65.50
2019-03-20T07:03:40.277Z,65.90
2019-03-20T07:06:28.646Z,65.90
2019-03-20T07:09:12.272Z,66.00
2019-03-20T07:11:40.598Z,66.10
2019-03-20T07:14:08.938Z,66.10
2019-03-20T07:16:37.250Z,66.40
2019-03-20T07:19:05.525Z,66.40
2019-03-20T07:21:33.931Z,66.50
2019-03-20T07:24:02.269Z,67.50
2019-03-20T07:26:30.604Z,66.50
2019-03-20T07:28:58.890Z,66.70
2019-03-20T07:31:27.167Z,66.90
2019-03-20T07:33:55.462Z,67.00
2019-03-20T07:36:24.017Z,67.10
2019-03-20T07:38:52.388Z,67.30
2019-03-20T07:41:21.025Z,67.30
2019-03-20T07:43:49.371Z,67.30
2019-03-20T07:46:17.814Z,67.30
2019-03-20T07:48:46.179Z,67.40
2019-03-20T07:51:14.449Z,67.50
2019-03-20T07:53:42.825Z,66.70
2019-03-20T07:56:11.164Z,67.50
2019-03-20T07:58:39.456Z,67.60
2019-03-20T08:01:07.729Z,67.60
2019-03-20T08:03:36.035Z,67.60
2019-03-20T08:06:04.619Z,67.60
2019-03-20T08:08:32.975Z,67.60
2019-03-20T08:11:01.279Z,67.80
2019-03-20T08:13:29.667Z,67.90
2019-03-20T08:15:57.990Z,67.90
2019-03-20T08:18:26.263Z,67.90
2019-03-20T08:20:54.561Z,68.00
2019-03-20T08:23:22.840Z,68.00
2019-03-20T08:25:51.206Z,67.90
2019-03-20T08:28:19.490Z,68.10
2019-03-20T08:30:47.775Z,68.00
2019-03-20T08:33:16.046Z,68.10
2019-03-20T08:35:44.347Z,68.10
2019-03-20T08:38:18.164Z,68.10
2019-03-20T08:40:42.710Z,68.20
2019-03-20T08:43:11.362Z,68.20
2019-03-20T08:45:39.826Z,68.30
2019-03-20T08:48:08.118Z,68.30
2019-03-20T08:50:36.558Z,68.30
2019-03-20T08:53:04.986Z,68.30
2019-03-20T08:55:33.264Z,68.30
2019-03-20T08:58:01.571Z,68.30
2019-03-20T09:00:29.922Z,68.40
2019-03-20T09:02:58.260Z,68.40
2019-03-20T09:05:26.541Z,68.40
2019-03-20T09:07:54.841Z,68.30
2019-03-20T09:10:24.258Z,68.40
2019-03-20T09:12:52.532Z,68.10
2019-03-20T09:15:21.361Z,67.90
2019-03-20T09:17:49.632Z,67.70
2019-03-20T09:20:18.961Z,67.50
2019-03-20T09:22:47.315Z,67.30
2019-03-20T09:25:18.077Z,67.20
2019-03-20T09:27:46.349Z,67.20
2019-03-20T09:30:22.155Z,67.00
2019-03-20T09:32:50.504Z,67.20
2019-03-20T09:35:18.866Z,67.20
2019-03-20T09:37:51.709Z,67.10
2019-03-20T09:40:27.275Z,67.90
2019-03-20T09:42:55.545Z,67.10
2019-03-20T09:45:24.869Z,67.00
2019-03-20T09:47:53.233Z,67.00
2019-03-20T09:50:26.751Z,67.00
2019-03-20T09:52:55.023Z,66.90
2019-03-20T09:55:23.302Z,66.80
2019-03-20T09:57:51.573Z,66.80
2019-03-20T10:00:24.072Z,66.80
2019-03-20T10:02:52.359Z,66.80
2019-03-20T10:05:20.725Z,66.90
2019-03-20T10:07:49.064Z,66.80
2019-03-20T10:10:24.434Z,66.80
2019-03-20T10:12:52.707Z,66.80
2019-03-20T10:15:27.093Z,66.80
2019-03-20T10:17:55.530Z,66.60
2019-03-20T10:20:23.818Z,66.80
2019-03-20T10:22:52.096Z,66.90
2019-03-20T10:25:20.376Z,66.80
2019-03-20T10:27:48.649Z,66.80
2019-03-20T10:30:26.175Z,66.80
2019-03-20T10:32:54.515Z,66.80
2019-03-20T10:35:22.856Z,66.90
2019-03-20T10:37:51.145Z,66.90
2019-03-20T10:40:22.751Z,67.00
2019-03-20T10:42:51.036Z,67.60
2019-03-20T10:45:19.847Z,67.00
2019-03-20T10:47:48.417Z,67.20
2019-03-20T10:50:21.717Z,67.20
2019-03-20T10:52:50.872Z,67.20
2019-03-20T10:55:19.239Z,67.20
2019-03-20T10:57:47.509Z,67.20
2019-03-20T11:00:25.971Z,67.50
2019-03-20T11:02:54.325Z,67.40
2019-03-20T11:05:22.711Z,67.40
2019-03-20T11:07:51.051Z,67.50
2019-03-20T11:10:23.521Z,67.50
2019-03-20T11:12:51.874Z,67.50
2019-03-20T11:15:21.006Z,68.40
2019-03-20T11:17:49.458Z,67.50
2019-03-20T11:20:21.497Z,67.50
2019-03-20T11:22:49.811Z,67.60
2019-03-20T11:25:45.920Z,67.70
2019-03-20T11:28:14.218Z,67.90
2019-03-20T11:30:42.501Z,68.00
2019-03-20T11:33:10.800Z,68.00
2019-03-20T11:35:39.073Z,68.10
2019-03-20T11:38:07.678Z,68.20
2019-03-20T11:40:40.054Z,68.20
2019-03-20T11:43:08.348Z,68.40
2019-03-20T11:45:36.746Z,68.40
2019-03-20T11:48:05.147Z,68.40
2019-03-20T11:50:38.017Z,68.40
2019-03-20T11:53:10.070Z,68.50
2019-03-20T11:55:38.563Z,68.70
2019-03-20T11:58:07.366Z,68.80
2019-03-20T12:00:35.736Z,68.70
2019-03-20T12:03:04.499Z,68.70
2019-03-20T12:05:32.849Z,68.70
2019-03-20T12:08:01.207Z,68.70
2019-03-20T12:10:30.587Z,68.70
2019-03-20T12:12:58.893Z,68.80
2019-03-20T12:15:27.178Z,68.80
2019-03-20T12:17:55.478Z,68.90
2019-03-20T12:20:24.395Z,68.90
2019-03-20T12:22:52.858Z,68.80
2019-03-20T12:25:24.395Z,68.80
2019-03-20T12:27:52.696Z,68.90
2019-03-20T12:30:35.739Z,68.90
2019-03-20T12:33:04.406Z,68.90
2019-03-20T12:35:37.647Z,69.00
2019-03-20T12:38:14.348Z,69.00
2019-03-20T12:40:36.048Z,69.30
2019-03-20T12:43:04.838Z,69.40
2019-03-20T12:45:39.806Z,69.30
2019-03-20T12:48:09.337Z,69.30
2019-03-20T12:50:37.610Z,69.40
2019-03-20T12:53:07.548Z,69.30
2019-03-20T12:55:35.829Z,69.30
2019-03-20T12:58:04.519Z,69.30
2019-03-20T13:00:32.790Z,69.30
2019-03-20T13:03:01.086Z,69.30
2019-03-20T13:05:29.432Z,69.40
2019-03-20T13:08:05.359Z,69.40
2019-03-20T13:10:28.144Z,69.40
2019-03-20T13:12:56.453Z,69.40
2019-03-20T13:15:28.426Z,69.40
2019-03-20T13:17:57.169Z,69.50
2019-03-20T13:20:25.887Z,69.40
2019-03-20T13:23:00.026Z,69.40
2019-03-20T13:25:28.348Z,69.50
2019-03-20T13:27:56.706Z,69.30
2019-03-20T13:30:27.716Z,69.40
2019-03-20T13:32:56.010Z,69.40
2019-03-20T13:35:24.409Z,69.40
2019-03-20T13:37:52.705Z,69.40
2019-03-20T13:40:20.983Z,69.40
2019-03-20T13:42:49.251Z,69.40
2019-03-20T13:45:22.859Z,69.50
2019-03-20T13:47:51.204Z,69.60
2019-03-20T13:50:19.483Z,69.60
2019-03-20T13:52:47.840Z,69.60
2019-03-20T13:55:17.841Z,69.60
2019-03-20T13:57:46.128Z,70.40
2019-03-20T14:00:27.456Z,69.60
2019-03-20T14:02:55.805Z,69.50
2019-03-20T14:05:24.098Z,69.40
2019-03-20T14:07:52.438Z,69.60
2019-03-20T14:10:25.746Z,69.50
2019-03-20T14:12:54.170Z,69.50
2019-03-20T14:15:22.536Z,69.40
2019-03-20T14:17:50.882Z,69.40
2019-03-20T14:20:24.154Z,69.50
2019-03-20T14:22:52.503Z,69.40
2019-03-20T14:25:21.203Z,69.40
2019-03-20T14:27:50.549Z,69.30
2019-03-20T14:30:29.638Z,69.30
2019-03-20T14:32:58.154Z,69.30
2019-03-20T14:35:26.518Z,69.20
2019-03-20T14:37:54.795Z,69.00
2019-03-20T14:40:36.465Z,69.20
2019-03-20T14:43:05.303Z,69.20
2019-03-20T14:45:33.785Z,69.20
2019-03-20T14:48:02.137Z,69.40
2019-03-20T14:50:33.008Z,69.50
2019-03-20T14:53:01.287Z,69.40
2019-03-20T14:55:29.664Z,69.50
2019-03-20T14:57:58.276Z,69.50
2019-03-20T15:00:30.468Z,69.60
2019-03-20T15:02:59.473Z,70.40
2019-03-20T15:05:27.850Z,69.90
2019-03-20T15:07:56.121Z,69.90
2019-03-20T15:10:25.351Z,70.00
2019-03-20T15:12:54.162Z,69.90
2019-03-20T15:15:44.420Z,70.00
2019-03-20T15:18:12.707Z,70.10
2019-03-20T15:20:41.067Z,70.10
2019-03-20T15:23:09.344Z,70.30
2019-03-20T15:25:37.707Z,70.40
2019-03-20T15:28:05.983Z,70.40
2019-03-20T15:30:34.362Z,70.40
2019-03-20T15:33:02.633Z,71.20
2019-03-20T15:35:30.987Z,70.20
2019-03-20T15:37:59.278Z,70.20
2019-03-20T15:40:29.083Z,70.10
2019-03-20T15:42:57.359Z,70.10
2019-03-20T15:45:25.679Z,70.10
2019-03-20T15:47:54.013Z,70.00
2019-03-20T15:50:23.433Z,70.00
2019-03-20T15:52:51.811Z,70.00
2019-03-20T15:55:32.074Z,69.80
2019-03-20T15:58:00.368Z,69.80
2019-03-20T16:00:28.726Z,69.70
2019-03-20T16:03:03.062Z,69.80
2019-03-20T16:05:31.717Z,69.90
2019-03-20T16:08:00.526Z,69.90
2019-03-20T16:10:28.816Z,70.00
2019-03-20T16:12:57.652Z,69.90
2019-03-20T16:15:25.931Z,69.90
2019-03-20T16:17:54.270Z,69.90
2019-03-20T16:20:22.638Z,70.00
2019-03-20T16:22:50.940Z,70.00
2019-03-20T16:25:20.934Z,70.20
2019-03-20T16:27:49.332Z,70.30
2019-03-20T16:30:20.067Z,70.30
2019-03-20T16:32:48.438Z,70.30
2019-03-20T16:35:17.010Z,70.30
2019-03-20T16:37:45.303Z,70.40
2019-03-20T16:40:21.269Z,70.40
2019-03-20T16:42:49.769Z,70.30
2019-03-20T16:45:27.071Z,70.40
2019-03-20T16:47:55.457Z,70.50
2019-03-20T16:50:23.796Z,70.60
2019-03-20T16:52:52.070Z,70.50
2019-03-20T16:55:20.367Z,70.50
2019-03-20T16:57:48.645Z,70.50
2019-03-20T17:00:24.877Z,70.50
2019-03-20T17:02:53.368Z,70.60
2019-03-20T17:05:22.476Z,70.60
2019-03-20T17:07:50.918Z,70.60
2019-03-20T17:10:22.531Z,70.70
2019-03-20T17:12:50.878Z,70.70
2019-03-20T17:15:28.130Z,70.60
2019-03-20T17:17:56.414Z,70.80
2019-03-20T17:20:24.686Z,70.00
2019-03-20T17:22:53.000Z,71.60
2019-03-20T17:25:21.296Z,70.80
2019-03-20T17:27:49.662Z,70.90
2019-03-20T17:30:32.233Z,71.00
2019-03-20T17:33:00.598Z,71.10
2019-03-20T17:35:28.969Z,71.10
2019-03-20T17:37:57.355Z,71.20
2019-03-20T17:40:27.750Z,71.30
2019-03-20T17:42:56.018Z,71.50
2019-03-20T17:45:48.295Z,71.50
2019-03-20T17:48:16.570Z,71.70
2019-03-20T17:50:44.858Z,71.80
2019-03-20T17:53:13.130Z,71.80
2019-03-20T17:55:41.490Z,71.70
2019-03-20T17:58:09.770Z,71.80
2019-03-20T18:00:49.074Z,72.00
2019-03-20T18:03:17.382Z,72.20
2019-03-20T18:05:45.658Z,72.30
2019-03-20T18:08:13.950Z,72.30
2019-03-20T18:10:42.224Z,72.30
2019-03-20T18:13:10.619Z,72.30
2019-03-20T18:15:38.887Z,72.30
2019-03-20T18:18:07.857Z,72.10
2019-03-20T18:20:36.821Z,72.20
2019-03-20T18:23:05.457Z,72.20
2019-03-20T18:25:33.809Z,72.00
2019-03-20T18:28:02.505Z,72.00
2019-03-20T18:30:33.743Z,71.90
2019-03-20T18:33:02.090Z,72.00
2019-03-20T18:35:30.367Z,71.90
2019-03-20T18:37:58.733Z,72.00
2019-03-20T18:40:27.913Z,71.30
2019-03-20T18:42:56.217Z,72.10
2019-03-20T18:45:25.530Z,72.10
2019-03-20T18:47:53.907Z,72.20
2019-03-20T18:50:22.987Z,72.30
2019-03-20T18:52:51.347Z,73.00
2019-03-20T18:55:20.091Z,72.30
2019-03-20T18:57:48.517Z,72.30
2019-03-20T19:00:24.222Z,72.30
2019-03-20T19:03:10.286Z,71.70
2019-03-20T19:05:50.116Z,72.30
2019-03-20T19:08:18.663Z,72.30
2019-03-20T19:10:47.042Z,72.30
2019-03-20T19:13:15.430Z,72.50
2019-03-20T19:15:43.774Z,72.50
2019-03-20T19:18:13.425Z,72.50
2019-03-20T19:20:41.770Z,72.70
2019-03-20T19:23:10.058Z,72.90
2019-03-20T19:25:38.326Z,73.20
2019-03-20T19:28:07.482Z,73.20
2019-03-20T19:30:35.763Z,72.50
2019-03-20T19:33:04.322Z,73.30
2019-03-20T19:35:32.627Z,73.40
2019-03-20T19:38:00.895Z,73.50
2019-03-20T19:40:29.179Z,73.40
2019-03-20T19:42:57.453Z,73.50
2019-03-20T19:45:25.741Z,73.60
2019-03-20T19:47:54.011Z,73.70
2019-03-20T19:50:23.439Z,73.70
2019-03-20T19:52:51.730Z,73.80
2019-03-20T19:55:20.093Z,73.80
2019-03-20T19:57:48.373Z,73.80
2019-03-20T20:00:21.996Z,73.70
2019-03-20T20:02:50.353Z,73.80
2019-03-20T20:05:18.775Z,73.80
2019-03-20T20:07:47.150Z,73.80
2019-03-20T20:10:16.472Z,73.80
2019-03-20T20:12:44.800Z,73.90
2019-03-20T20:15:29.418Z,73.90
2019-03-20T20:17:57.721Z,73.90
2019-03-20T20:20:30.998Z,74.00
2019-03-20T20:22:59.407Z,73.90
2019-03-20T20:25:27.688Z,73.90
2019-03-20T20:27:55.974Z,74.00
2019-03-20T20:30:24.254Z,74.10
2019-03-20T20:32:52.666Z,74.00
2019-03-20T20:35:21.109Z,74.10
2019-03-20T20:37:50.327Z,74.10
2019-03-20T20:40:26.462Z,74.10
2019-03-20T20:42:54.736Z,74.10
2019-03-20T20:45:23.041Z,74.10
2019-03-20T20:47:51.336Z,74.10
2019-03-20T20:50:19.700Z,74.00
2019-03-20T20:52:47.984Z,74.00
2019-03-20T20:55:18.790Z,73.90
2019-03-20T20:57:47.078Z,73.90
2019-03-20T21:00:22.660Z,73.90
2019-03-20T21:02:51.014Z,73.80
2019-03-20T21:05:19.278Z,73.80
2019-03-20T21:07:47.617Z,73.70
2019-03-20T21:10:17.119Z,73.70
2019-03-20T21:12:55.583Z,73.60
2019-03-20T21:15:30.985Z,73.60
2019-03-20T21:18:14.307Z,73.60
2019-03-20T21:20:43.118Z,73.50
2019-03-20T21:23:38.570Z,73.30
2019-03-20T21:26:12.137Z,73.40
2019-03-20T21:29:15.489Z,73.10
2019-03-20T21:31:49.681Z,73.10
2019-03-20T21:34:42.515Z,72.90
2019-03-20T21:37:47.501Z,72.80
2019-03-20T21:40:16.722Z,72.80
2019-03-20T21:43:21.647Z,72.70
2019-03-20T21:46:15.299Z,73.00
2019-03-20T21:48:43.568Z,72.70
2019-03-20T21:51:15.989Z,72.80
2019-03-20T21:54:14.561Z,72.90
2019-03-20T21:57:03.893Z,72.70
2019-03-20T22:00:08.840Z,72.70
2019-03-20T22:02:44.103Z,72.80
2019-03-20T22:05:23.351Z,72.90
2019-03-20T22:07:51.570Z,72.90
2019-03-20T22:10:25.847Z,72.90
2019-03-20T22:13:18.685Z,73.00
2019-03-20T22:15:54.409Z,73.10
2019-03-20T22:18:51.902Z,72.80
2019-03-20T22:21:46.186Z,73.20
2019-03-20T22:24:23.696Z,72.60
2019-03-20T22:27:07.215Z,72.50
2019-03-20T22:29:35.488Z,72.40
2019-03-20T22:32:30.594Z,72.30
2019-03-20T22:35:20.460Z,72.20
2019-03-20T22:37:48.764Z,72.00
2019-03-20T22:40:36.900Z,71.90
2019-03-20T22:43:30.378Z,71.70
2019-03-20T22:46:14.922Z,71.50
2019-03-20T22:49:03.058Z,71.40
2019-03-20T22:51:37.098Z,71.10
2019-03-20T22:54:28.414Z,71.00
2019-03-20T22:57:09.244Z,70.90
2019-03-20T22:59:37.602Z,70.70
2019-03-20T23:02:15.503Z,70.60
2019-03-20T23:04:50.002Z,70.50
2019-03-20T23:07:18.284Z,70.30
2019-03-20T23:09:46.846Z,70.20
2019-03-20T23:12:17.682Z,71.00
2019-03-20T23:14:45.194Z,70.20
2019-03-20T23:17:13.562Z,70.10
2019-03-20T23:19:43.084Z,69.90
2019-03-20T23:22:11.415Z,69.80
2019-03-20T23:24:39.720Z,69.70
2019-03-20T23:27:17.019Z,69.60
2019-03-20T23:29:45.290Z,69.50
2019-03-20T23:32:13.587Z,69.40
2019-03-20T23:34:41.933Z,69.30
2019-03-20T23:37:10.214Z,69.20
2019-03-20T23:39:38.487Z,69.20
2019-03-20T23:42:06.854Z,69.10
2019-03-20T23:44:35.201Z,68.90
2019-03-20T23:47:03.474Z,68.90
2019-03-20T23:49:31.769Z,68.90
2019-03-20T23:52:00.049Z,68.70
2019-03-20T23:54:34.465Z,68.70
2019-03-20T23:57:02.807Z,68.50
2019-03-20T23:59:31.101Z,68.60
